createdAt,value
2022-08-08T00:01:06.749Z,100127.83
2022-08-08T00:03:44.932Z,100127.83
2022-08-08T00:06:28.505Z,100120.35
2022-08-08T00:09:16.716Z,100125.83
2022-08-08T00:12:23.647Z,100121.56
2022-08-08T00:18:03.688Z,100118.31
2022-08-08T00:20:26.897Z,100120.14
2022-08-08T00:23:00.239Z,100120.14
2022-08-08T00:25:44.729Z,100118.52
2022-08-08T00:28:34.593Z,100114.06
2022-08-08T00:30:45.129Z,100114.06
2022-08-08T00:33:24.076Z,100119.71
2022-08-08T00:36:09.813Z,100124.59
2022-08-08T00:39:36.069Z,100120.13
2022-08-08T00:42:07.999Z,100120.13
2022-08-08T00:44:29.637Z,100119.91
2022-08-08T00:47:23.722Z,100118.91
2022-08-08T00:50:12.967Z,100118.91
2022-08-08T00:53:15.668Z,100117.86
2022-08-08T00:56:19.394Z,100113.64
2022-08-08T01:03:53.925Z,100115.66
2022-08-08T01:05:04.586Z,100121.10
2022-08-08T01:07:55.404Z,100113.62
2022-08-08T01:10:55.764Z,100110.55
2022-08-08T01:13:37.928Z,100110.55
2022-08-08T01:16:27.978Z,100112.53
2022-08-08T01:19:25.655Z,100112.53
2022-08-08T01:22:13.045Z,100113.73
2022-08-08T01:24:50.923Z,100105.22
2022-08-08T01:27:44.250Z,100105.22
2022-08-08T01:30:31.766Z,100113.08
2022-08-08T01:33:53.845Z,100122.77
2022-08-08T01:36:35.567Z,100122.77
2022-08-08T01:39:35.104Z,100124.56
2022-08-08T01:42:40.629Z,100122.28
2022-08-08T01:45:16.704Z,100121.90
2022-08-08T01:48:16.176Z,100121.90
2022-08-08T01:50:46.011Z,100119.45
2022-08-08T01:55:15.155Z,100129.55
2022-08-08T01:56:34.216Z,100132.33
2022-08-08T01:59:38.155Z,100133.95
2022-08-08T02:02:34.135Z,100136.77
2022-08-08T02:05:26.201Z,100135.29
2022-08-08T02:08:12.114Z,100135.29
2022-08-08T02:11:23.592Z,100138.08
2022-08-08T02:14:10.079Z,100147.94
2022-08-08T02:17:01.705Z,100144.30
2022-08-08T02:20:08.410Z,100145.92
2022-08-08T02:22:52.620Z,100145.92
2022-08-08T02:25:46.999Z,100135.92
2022-08-08T02:28:12.091Z,100135.92
2022-08-08T02:31:43.445Z,100130.84
2022-08-08T02:34:08.080Z,100125.19
2022-08-08T02:36:44.863Z,100125.19
2022-08-08T02:45:56.847Z,100141.16
2022-08-08T02:48:27.349Z,100142.12
2022-08-08T02:51:00.834Z,100152.17
2022-08-08T02:53:47.378Z,100147.94
2022-08-08T02:56:44.005Z,100146.91
2022-08-08T02:59:57.300Z,100146.91
2022-08-08T03:02:44.436Z,100151.36
2022-08-08T03:05:46.363Z,100151.36
2022-08-08T03:08:28.673Z,100162.87
2022-08-08T03:12:01.181Z,100159.68
2022-08-08T03:15:59.454Z,100161.09
2022-08-08T03:17:12.987Z,100163.13
2022-08-08T03:19:51.607Z,100159.09
2022-08-08T03:22:38.216Z,100164.12
2022-08-08T03:24:56.992Z,100164.12
2022-08-08T03:27:46.249Z,100171.03
2022-08-08T03:30:19.274Z,100177.91
2022-08-08T03:32:57.751Z,100183.19
2022-08-08T03:35:24.347Z,100190.39
2022-08-08T03:38:53.819Z,100190.39
2022-08-08T03:40:30.644Z,100190.03
2022-08-08T03:43:16.620Z,100193.84
2022-08-08T03:46:05.443Z,100199.29
2022-08-08T03:48:09.292Z,100199.29
2022-08-08T03:51:04.538Z,100207.00
2022-08-08T03:53:38.052Z,100210.09
2022-08-08T03:56:09.968Z,100210.09
2022-08-08T03:58:47.973Z,100215.16
2022-08-08T04:01:23.996Z,100215.80
2022-08-08T04:03:58.957Z,100215.80
2022-08-08T04:06:20.397Z,100213.59
2022-08-08T04:08:50.707Z,100219.69
2022-08-08T04:11:23.319Z,100219.69
2022-08-08T04:14:03.943Z,100216.91
2022-08-08T04:16:40.319Z,100221.14
2022-08-08T04:19:01.612Z,100218.17
2022-08-08T04:21:38.084Z,100222.11
2022-08-08T04:24:28.216Z,100223.94
2022-08-08T04:26:56.672Z,100226.39
2022-08-08T04:29:11.913Z,100224.80
2022-08-08T04:31:59.791Z,100232.91
2022-08-08T04:34:15.768Z,100230.94
2022-08-08T04:36:47.841Z,100238.22
2022-08-08T04:40:03.607Z,100238.22
2022-08-08T04:41:50.609Z,100240.06
2022-08-08T04:44:21.101Z,100237.08
2022-08-08T04:46:52.655Z,100246.61
2022-08-08T04:49:28.848Z,100240.34
2022-08-08T04:51:57.200Z,100240.34
2022-08-08T04:54:40.305Z,100246.22
2022-08-08T04:57:00.096Z,100243.38
2022-08-08T04:59:31.435Z,100244.80
2022-08-08T05:02:03.575Z,100251.45
2022-08-08T05:04:34.628Z,100251.45
2022-08-08T05:07:05.360Z,100242.12
2022-08-08T05:09:36.485Z,100242.12
2022-08-08T05:12:09.300Z,100248.94
2022-08-08T05:14:40.559Z,100253.81
2022-08-08T05:17:13.574Z,100259.16
2022-08-08T05:20:11.691Z,100264.98
2022-08-08T05:22:21.153Z,100264.98
2022-08-08T05:24:51.473Z,100268.35
2022-08-08T05:27:21.752Z,100277.41
2022-08-08T05:29:52.535Z,100279.16
2022-08-08T05:32:24.696Z,100279.16
2022-08-08T05:34:56.748Z,100280.94
2022-08-08T05:37:39.084Z,100284.36
2022-08-08T05:40:02.222Z,100284.91
2022-08-08T05:42:44.848Z,100277.83
2022-08-08T05:45:30.832Z,100277.83
2022-08-08T05:47:59.977Z,100281.64
2022-08-08T05:50:19.446Z,100281.64
2022-08-08T05:52:50.877Z,100285.15
2022-08-08T05:55:21.337Z,100282.16
2022-08-08T05:58:05.417Z,100272.27
2022-08-08T06:00:34.383Z,100272.27
2022-08-08T06:03:10.496Z,100276.97
2022-08-08T06:06:05.077Z,100275.22
2022-08-08T06:08:54.618Z,100275.22
2022-08-08T06:11:18.434Z,100274.18
2022-08-08T06:13:52.930Z,100274.18
2022-08-08T06:16:27.488Z,100280.81
2022-08-08T06:18:56.938Z,100281.88
2022-08-08T06:21:33.155Z,100281.88
2022-08-08T06:24:13.597Z,100284.09
2022-08-08T06:26:45.295Z,100290.20
2022-08-08T06:29:48.787Z,100290.20
2022-08-08T06:32:08.971Z,100294.59
2022-08-08T06:34:27.028Z,100297.67
2022-08-08T06:36:57.867Z,100301.95
2022-08-08T06:39:56.019Z,100300.98
2022-08-08T06:45:10.166Z,100302.44
2022-08-08T06:47:52.535Z,100306.06
2022-08-08T06:50:17.580Z,100308.78
2022-08-08T06:52:50.403Z,100300.17
2022-08-08T06:55:21.432Z,100300.17
2022-08-08T06:57:56.272Z,100302.14
2022-08-08T07:00:30.766Z,100311.02
2022-08-08T07:03:08.119Z,100311.02
2022-08-08T07:05:41.638Z,100320.84
2022-08-08T07:08:21.379Z,100322.00
2022-08-08T07:10:55.897Z,100325.98
2022-08-08T07:13:30.506Z,100327.02
2022-08-08T07:16:10.702Z,100327.02
2022-08-08T07:18:55.918Z,100330.36
2022-08-08T07:21:31.272Z,100327.64
2022-08-08T07:24:09.893Z,100330.58
2022-08-08T07:26:43.465Z,100333.66
2022-08-08T07:29:20.634Z,100333.66
2022-08-08T07:32:15.844Z,100331.18
2022-08-08T07:35:00.237Z,100331.18
2022-08-08T07:37:20.082Z,100336.48
2022-08-08T07:39:57.605Z,100333.98
2022-08-08T07:42:32.807Z,100338.44
2022-08-08T07:44:57.698Z,100338.42
2022-08-08T07:47:38.409Z,100343.16
2022-08-08T07:50:04.201Z,100343.31
2022-08-08T07:52:43.422Z,100345.48
2022-08-08T07:55:28.535Z,100345.48
2022-08-08T07:58:02.731Z,100344.08
2022-08-08T08:00:36.971Z,100341.95
2022-08-08T08:03:23.549Z,100341.95
2022-08-08T08:05:44.193Z,100351.94
2022-08-08T08:08:19.006Z,100344.94
2022-08-08T08:10:53.806Z,100351.55
2022-08-08T08:14:07.728Z,100354.70
2022-08-08T08:16:12.433Z,100346.20
2022-08-08T08:18:55.684Z,100354.95
2022-08-08T08:21:44.023Z,100346.39
2022-08-08T08:23:54.562Z,100347.61
2022-08-08T08:26:27.487Z,100344.89
2022-08-08T08:28:58.506Z,100350.91
2022-08-08T08:31:28.977Z,100350.66
2022-08-08T08:34:00.991Z,100345.48
2022-08-08T08:36:31.772Z,100351.82
2022-08-08T08:39:02.211Z,100353.27
2022-08-08T08:41:35.230Z,100351.63
2022-08-08T08:44:13.901Z,100350.08
2022-08-08T08:46:40.113Z,100349.80
2022-08-08T08:49:12.066Z,100347.44
2022-08-08T08:51:51.297Z,100347.44
2022-08-08T08:54:19.973Z,100349.08
2022-08-08T08:56:52.454Z,100351.25
2022-08-08T08:59:58.475Z,100354.66
2022-08-08T09:01:58.532Z,100346.33
2022-08-08T09:04:38.709Z,100345.73
2022-08-08T09:07:12.256Z,100345.73
2022-08-08T09:09:47.395Z,100346.35
2022-08-08T09:12:14.946Z,100346.35
2022-08-08T09:14:47.005Z,100341.75
2022-08-08T09:17:41.766Z,100342.93
2022-08-08T09:22:01.796Z,100342.93
2022-08-08T09:22:32.215Z,100354.42
2022-08-08T09:25:07.457Z,100354.42
2022-08-08T09:27:55.725Z,100349.53
2022-08-08T09:30:17.926Z,100345.28
2022-08-08T09:33:12.270Z,100340.94
2022-08-08T09:35:32.066Z,100340.94
2022-08-08T09:38:09.635Z,100340.64
2022-08-08T09:40:46.516Z,100340.64
2022-08-08T09:44:04.791Z,100345.84
2022-08-08T09:46:06.576Z,100339.72
2022-08-08T09:48:42.648Z,100337.76
2022-08-08T09:51:10.010Z,100335.99
2022-08-08T09:54:01.227Z,100335.99
2022-08-08T09:56:25.413Z,100328.91
2022-08-08T09:59:25.975Z,100333.41
2022-08-08T10:02:00.023Z,100333.41
2022-08-08T10:04:41.568Z,100335.78
2022-08-08T10:07:07.494Z,100335.78
2022-08-08T10:10:00.487Z,100333.88
2022-08-08T10:12:26.222Z,100331.81
2022-08-08T10:14:43.564Z,100334.63
2022-08-08T10:17:55.964Z,100334.63
2022-08-08T10:19:58.168Z,100335.73
2022-08-08T10:22:20.684Z,100335.73
2022-08-08T10:24:54.624Z,100336.84
2022-08-08T10:27:28.535Z,100328.86
2022-08-08T10:30:05.641Z,100336.98
2022-08-08T10:32:39.273Z,100329.52
2022-08-08T10:36:01.923Z,100326.23
2022-08-08T10:37:52.883Z,100326.23
2022-08-08T10:40:44.818Z,100332.44
2022-08-08T10:43:15.874Z,100328.50
2022-08-08T10:45:56.466Z,100328.50
2022-08-08T10:48:20.023Z,100317.45
2022-08-08T10:50:53.082Z,100320.89
2022-08-08T10:53:56.634Z,100319.63
2022-08-08T10:56:05.264Z,100317.49
2022-08-08T10:58:37.523Z,100313.84
2022-08-08T11:01:12.658Z,100313.84
2022-08-08T11:04:00.505Z,100316.55
2022-08-08T11:06:19.564Z,100308.21
2022-08-08T11:08:53.416Z,100304.25
2022-08-08T11:11:31.732Z,100303.77
2022-08-08T11:13:59.965Z,100311.30
2022-08-08T11:16:34.401Z,100307.29
2022-08-08T11:19:06.101Z,100305.72
2022-08-08T11:21:40.573Z,100304.40
2022-08-08T11:24:12.724Z,100302.45
2022-08-08T11:26:56.372Z,100303.61
2022-08-08T11:29:20.503Z,100297.60
2022-08-08T11:31:59.146Z,100304.13
2022-08-08T11:34:46.893Z,100298.83
2022-08-08T11:37:14.993Z,100297.09
2022-08-08T11:39:43.548Z,100297.08
2022-08-08T11:42:11.474Z,100302.18
2022-08-08T11:44:45.542Z,100305.23
2022-08-08T11:47:20.906Z,100305.23
2022-08-08T11:50:03.527Z,100292.08
2022-08-08T11:52:45.319Z,100298.98
2022-08-08T11:55:19.847Z,100298.98
2022-08-08T12:01:12.323Z,100304.04
2022-08-08T12:03:53.983Z,100301.22
2022-08-08T12:06:25.579Z,100301.22
2022-08-08T12:09:07.081Z,100294.20
2022-08-08T12:11:45.975Z,100299.52
2022-08-08T12:14:28.961Z,100302.80
2022-08-08T12:16:58.547Z,100295.26
2022-08-08T12:19:37.432Z,100295.26
2022-08-08T12:22:32.737Z,100296.97
2022-08-08T12:25:00.538Z,100302.41
2022-08-08T12:27:45.242Z,100302.66
2022-08-08T12:30:15.891Z,100291.25
2022-08-08T12:32:47.977Z,100289.64
2022-08-08T12:35:23.293Z,100289.64
2022-08-08T12:38:03.814Z,100286.80
2022-08-08T12:40:57.140Z,100286.80
2022-08-08T12:43:43.569Z,100282.71
2022-08-08T12:46:04.512Z,100289.30
2022-08-08T12:48:38.561Z,100284.56
2022-08-08T12:51:24.587Z,100284.56
2022-08-08T12:54:04.723Z,100290.04
2022-08-08T12:56:40.427Z,100304.48
2022-08-08T12:59:18.845Z,100282.77
2022-08-08T13:01:55.847Z,100283.78
2022-08-08T13:04:29.688Z,100289.29
2022-08-08T13:07:12.074Z,100293.05
2022-08-08T13:10:05.489Z,100281.09
2022-08-08T13:12:46.712Z,100281.09
2022-08-08T13:15:24.978Z,100286.11
2022-08-08T13:18:10.925Z,100290.42
2022-08-08T13:20:29.845Z,100285.06
2022-08-08T13:23:30.815Z,100285.06
2022-08-08T13:25:36.369Z,100272.94
2022-08-08T13:28:12.126Z,100276.09
2022-08-08T13:30:46.235Z,100283.84
2022-08-08T13:33:41.950Z,100278.52
2022-08-08T13:36:08.164Z,100278.52
2022-08-08T13:38:41.913Z,100276.28
2022-08-08T13:41:16.023Z,100276.28
2022-08-08T13:43:46.851Z,100274.37
2022-08-08T13:46:26.499Z,100266.02
2022-08-08T13:50:33.934Z,100266.02
2022-08-08T13:51:33.823Z,100267.91
2022-08-08T13:53:59.997Z,100262.25
2022-08-08T13:56:41.579Z,100265.28
2022-08-08T13:59:07.531Z,100265.28
2022-08-08T14:01:52.894Z,100272.97
2022-08-08T14:04:18.022Z,100267.66
2022-08-08T14:06:47.573Z,100265.34
2022-08-08T14:09:29.709Z,100273.61
2022-08-08T14:11:51.531Z,100269.54
2022-08-08T14:14:27.208Z,100270.93
2022-08-08T14:16:55.326Z,100268.77
2022-08-08T14:19:57.008Z,100268.77
2022-08-08T14:22:24.562Z,100255.62
2022-08-08T14:25:07.546Z,100255.62
2022-08-08T14:27:40.540Z,100250.37
2022-08-08T14:30:17.745Z,100257.70
2022-08-08T14:32:53.158Z,100257.70
2022-08-08T14:35:34.970Z,100251.27
2022-08-08T14:38:08.746Z,100251.00
2022-08-08T14:40:39.760Z,100253.46
2022-08-08T14:43:22.555Z,100250.31
2022-08-08T14:46:01.682Z,100252.08
2022-08-08T14:48:16.478Z,100249.03
2022-08-08T14:50:46.761Z,100241.52
2022-08-08T14:53:18.506Z,100237.67
2022-08-08T14:56:01.747Z,100243.02
2022-08-08T14:58:21.490Z,100239.41
2022-08-08T15:00:54.554Z,100232.74
2022-08-08T15:03:26.013Z,100232.74
2022-08-08T15:05:58.937Z,100233.89
2022-08-08T15:08:34.476Z,100225.66
2022-08-08T15:11:02.385Z,100228.94
2022-08-08T15:13:40.591Z,100231.91
2022-08-08T15:16:08.168Z,100222.38
2022-08-08T15:18:40.627Z,100222.38
2022-08-08T15:21:13.821Z,100220.20
2022-08-08T15:23:44.261Z,100220.20
2022-08-08T15:26:16.250Z,100220.05
2022-08-08T15:28:46.687Z,100223.82
2022-08-08T15:31:25.882Z,100224.55
2022-08-08T15:33:59.236Z,100222.36
2022-08-08T15:36:28.454Z,100215.63
2022-08-08T15:38:55.017Z,100213.41
2022-08-08T15:41:29.937Z,100213.41
2022-08-08T15:44:00.797Z,100212.06
2022-08-08T15:46:35.362Z,100215.57
2022-08-08T15:49:04.115Z,100215.57
2022-08-08T15:51:34.795Z,100217.34
2022-08-08T15:54:05.419Z,100217.28
2022-08-08T15:56:35.773Z,100224.06
2022-08-08T15:59:10.625Z,100224.06
2022-08-08T16:02:00.038Z,100222.50
2022-08-08T16:04:16.838Z,100234.05
2022-08-08T16:06:51.997Z,100237.27
2022-08-08T16:13:10.362Z,100232.36
2022-08-08T16:13:21.205Z,100234.73
2022-08-08T16:14:32.559Z,100232.36
2022-08-08T16:17:01.146Z,100243.53
2022-08-08T16:19:57.231Z,100233.23
2022-08-08T16:22:04.534Z,100241.82
2022-08-08T16:24:35.722Z,100241.82
2022-08-08T16:27:06.150Z,100247.27
2022-08-08T16:30:08.236Z,100249.46
2022-08-08T16:32:21.936Z,100254.05
2022-08-08T16:34:45.415Z,100248.14
2022-08-08T16:37:16.263Z,100248.14
2022-08-08T16:40:01.241Z,100249.15
2022-08-08T16:42:19.503Z,100254.77
2022-08-08T16:44:54.423Z,100263.36
2022-08-08T16:47:31.590Z,100263.34
2022-08-08T16:50:01.497Z,100264.24
2022-08-08T16:55:06.933Z,100265.23
2022-08-08T16:55:33.972Z,100265.23
2022-08-08T16:58:14.084Z,100268.55
2022-08-08T17:00:12.419Z,100262.47
2022-08-08T17:02:45.534Z,100265.30
2022-08-08T17:05:16.296Z,100266.23
2022-08-08T17:07:51.276Z,100267.23
2022-08-08T17:10:19.607Z,100260.25
2022-08-08T17:12:53.065Z,100269.89
2022-08-08T17:15:23.632Z,100269.89
2022-08-08T17:18:02.249Z,100260.30
2022-08-08T17:20:26.313Z,100268.59
2022-08-08T17:23:16.511Z,100267.55
2022-08-08T17:25:47.716Z,100268.93
2022-08-08T17:28:01.840Z,100268.93
2022-08-08T17:30:32.405Z,100273.95
2022-08-08T17:34:36.799Z,100276.55
2022-08-08T17:35:54.464Z,100282.08
2022-08-08T17:38:14.362Z,100277.40
2022-08-08T17:40:44.167Z,100277.70
2022-08-08T17:43:16.248Z,100284.78
2022-08-08T17:45:46.563Z,100287.64
2022-08-08T17:48:30.824Z,100295.69
2022-08-08T17:50:48.932Z,100295.69
2022-08-08T17:53:22.853Z,100296.56
2022-08-08T17:56:05.487Z,100303.09
2022-08-08T17:58:31.637Z,100303.09
2022-08-08T18:01:05.469Z,100307.30
2022-08-08T18:03:38.171Z,100307.30
2022-08-08T18:06:22.186Z,100311.58
2022-08-08T18:08:43.684Z,100310.33
2022-08-08T18:11:17.324Z,100312.95
2022-08-08T18:13:48.149Z,100312.95
2022-08-08T18:16:23.635Z,100312.43
2022-08-08T18:18:56.178Z,100306.80
2022-08-08T18:21:59.465Z,100306.80
2022-08-08T18:24:01.781Z,100319.83
2022-08-08T18:26:42.969Z,100311.87
2022-08-08T18:29:15.529Z,100314.03
2022-08-08T18:31:46.029Z,100318.56
2022-08-08T18:34:25.935Z,100318.56
2022-08-08T18:36:50.303Z,100316.53
2022-08-08T18:39:27.415Z,100316.53
2022-08-08T18:42:03.213Z,100322.45
2022-08-08T18:44:27.514Z,100322.05
2022-08-08T18:46:58.436Z,100327.27
2022-08-08T18:49:32.317Z,100327.27
2022-08-08T18:52:02.165Z,100327.08
2022-08-08T18:54:33.170Z,100327.08
2022-08-08T18:57:06.962Z,100321.19
2022-08-08T18:59:38.407Z,100321.19
2022-08-08T19:02:25.992Z,100329.66
2022-08-08T19:04:41.729Z,100329.66
2022-08-08T19:07:13.812Z,100323.38
2022-08-08T19:09:49.658Z,100322.56
2022-08-08T19:12:26.516Z,100322.56
2022-08-08T19:14:57.971Z,100317.35
2022-08-08T19:17:47.579Z,100323.58
2022-08-08T19:20:06.665Z,100329.71
2022-08-08T19:23:16.694Z,100329.71
2022-08-08T19:26:20.304Z,100329.94
2022-08-08T19:28:24.835Z,100330.83
2022-08-08T19:31:09.435Z,100327.84
2022-08-08T19:33:51.613Z,100319.49
2022-08-08T19:36:09.161Z,100319.49
2022-08-08T19:38:40.722Z,100326.75
2022-08-08T19:41:11.754Z,100326.75
2022-08-08T19:43:44.072Z,100328.04
2022-08-08T19:46:15.894Z,100330.58
2022-08-08T19:48:48.018Z,100319.30
2022-08-08T19:51:25.068Z,100319.30
2022-08-08T19:53:53.981Z,100324.61
2022-08-08T19:56:25.468Z,100325.59
2022-08-08T19:58:57.157Z,100318.47
2022-08-08T20:01:50.204Z,100318.47
2022-08-08T20:04:03.613Z,100320.55
2022-08-08T20:06:34.079Z,100314.50
2022-08-08T20:09:09.060Z,100316.08
2022-08-08T20:11:43.251Z,100316.08
2022-08-08T20:14:34.603Z,100324.63
2022-08-08T20:16:43.970Z,100324.63
2022-08-08T20:19:16.077Z,100327.58
2022-08-08T20:21:47.063Z,100328.73
2022-08-08T20:24:19.287Z,100322.14
2022-08-08T20:26:53.241Z,100329.07
2022-08-08T20:29:55.271Z,100331.98
2022-08-08T20:32:10.033Z,100331.98
2022-08-08T20:34:33.866Z,100326.34
2022-08-08T20:37:06.594Z,100326.23
2022-08-08T20:39:41.637Z,100326.23
2022-08-08T20:42:09.521Z,100324.13
2022-08-08T20:44:40.104Z,100324.95
2022-08-08T20:47:23.611Z,100324.95
2022-08-08T20:49:46.995Z,100327.61
2022-08-08T20:52:15.419Z,100334.31
2022-08-08T20:54:46.061Z,100334.17
2022-08-08T20:57:28.906Z,100328.73
2022-08-08T20:59:49.508Z,100331.58
2022-08-08T21:02:25.951Z,100333.30
2022-08-08T21:04:53.021Z,100333.11
2022-08-08T21:07:47.623Z,100333.11
2022-08-08T21:10:08.237Z,100334.19
2022-08-08T21:12:32.379Z,100334.33
2022-08-08T21:15:06.963Z,100331.34
2022-08-08T21:17:34.951Z,100331.34
2022-08-08T21:22:56.861Z,100335.45
2022-08-08T21:25:28.491Z,100330.60
2022-08-08T21:28:09.819Z,100330.52
2022-08-08T21:30:32.712Z,100336.91
2022-08-08T21:33:08.122Z,100336.91
2022-08-08T21:36:18.729Z,100335.30
2022-08-08T21:38:16.470Z,100339.98
2022-08-08T21:40:42.029Z,100337.20
2022-08-08T21:43:19.597Z,100332.81
2022-08-08T21:48:05.598Z,100332.81
2022-08-08T21:48:30.357Z,100331.61
2022-08-08T21:50:55.403Z,100329.00
2022-08-08T21:54:32.650Z,100329.84
2022-08-08T21:56:26.890Z,100329.84
2022-08-08T21:58:37.641Z,100330.09
2022-08-08T22:01:05.687Z,100325.23
2022-08-08T22:03:37.874Z,100330.35
2022-08-08T22:06:12.005Z,100328.70
2022-08-08T22:08:42.557Z,100325.09
2022-08-08T22:11:59.199Z,100336.25
2022-08-08T22:13:51.137Z,100336.25
2022-08-08T22:16:19.303Z,100327.30
2022-08-08T22:18:52.969Z,100329.31
2022-08-08T22:21:23.748Z,100329.31
2022-08-08T22:23:56.004Z,100321.19
2022-08-08T22:26:31.038Z,100324.41
2022-08-08T22:29:04.708Z,100324.03
2022-08-08T22:31:35.129Z,100324.03
2022-08-08T22:34:13.772Z,100312.27
2022-08-08T22:36:36.910Z,100309.44
2022-08-08T22:39:07.300Z,100309.44
2022-08-08T22:41:37.882Z,100315.54
2022-08-08T22:44:09.736Z,100314.11
2022-08-08T22:46:42.148Z,100315.11
2022-08-08T22:49:17.925Z,100315.11
2022-08-08T22:51:46.680Z,100313.30
2022-08-08T22:54:31.522Z,100308.08
2022-08-08T22:56:50.362Z,100308.08
2022-08-08T22:59:20.872Z,100306.88
2022-08-08T23:02:03.268Z,100301.83
2022-08-08T23:04:31.766Z,100297.78
2022-08-08T23:07:02.893Z,100297.78
2022-08-08T23:09:30.391Z,100300.44
2022-08-08T23:12:29.154Z,100303.91
2022-08-08T23:14:33.675Z,100308.17
2022-08-08T23:17:05.634Z,100303.89
2022-08-08T23:19:35.936Z,100306.75
2022-08-08T23:22:08.888Z,100306.75
2022-08-08T23:24:41.718Z,100303.73
2022-08-08T23:27:17.192Z,100302.52
2022-08-08T23:29:55.920Z,100302.52
2022-08-08T23:32:18.903Z,100301.91
2022-08-08T23:34:58.780Z,100297.47
2022-08-08T23:37:24.631Z,100304.14
2022-08-08T23:39:55.643Z,100304.14
2022-08-08T23:42:26.505Z,100296.66
2022-08-08T23:44:58.235Z,100306.15
2022-08-08T23:49:07.966Z,100306.15
2022-08-08T23:50:05.383Z,100301.48
2022-08-08T23:52:33.657Z,100298.26
2022-08-08T23:55:22.322Z,100298.26
2022-08-08T23:57:51.845Z,100293.17
